Time;durP1;ratioP1;P1;durP2;ratioP2;P2;SDS_P1;SDS_P2;PMS_P1;PMS_P2;Temp;Humidity;BMP_temperature;BMP_pressure;BME280_temperature;BME280_humidity;BME280_pressure;Samples;Min_cycle;Max_cycle;Signal;HPM_P1;HPM_P2
2023/10/04 00:01:48;;;;;;;3.13;1.75;;;;;;;;;;5055417;28;20096;-58
2023/10/04 00:04:13;;;;;;;2.67;1.42;;;;;;;;;;5055051;28;20442;-59
2023/10/04 00:06:41;;;;;;;2.33;1.10;;;;;;;;;;5054796;28;20064;-59
2023/10/04 00:09:06;;;;;;;3.33;1.60;;;;;;;;;;5055176;28;20025;-59
2023/10/04 00:11:35;;;;;;;3.63;1.50;;;;;;;;;;5054698;28;20458;-58
2023/10/04 00:14:01;;;;;;;3.35;1.38;;;;;;;;;;5054698;28;20025;-59
2023/10/04 00:16:27;;;;;;;2.47;1.25;;;;;;;;;;5054944;28;20108;-59
2023/10/04 00:18:56;;;;;;;3.17;1.30;;;;;;;;;;5055102;28;20115;-59
2023/10/04 00:21:24;;;;;;;1.75;1.00;;;;;;;;;;5054984;28;20458;-59
2023/10/04 00:23:49;;;;;;;3.13;1.90;;;;;;;;;;5054423;28;20383;-58
2023/10/04 00:26:15;;;;;;;2.17;1.25;;;;;;;;;;5054705;28;20032;-59
2023/10/04 00:28:42;;;;;;;3.22;1.42;;;;;;;;;;5054210;28;20069;-59
2023/10/04 00:31:08;;;;;;;3.33;1.15;;;;;;;;;;5054955;28;20043;-58
2023/10/04 00:33:35;;;;;;;2.47;1.35;;;;;;;;;;5055003;28;20021;-59
2023/10/04 00:36:04;;;;;;;2.97;1.58;;;;;;;;;;5054336;28;20140;-59
2023/10/04 00:38:33;;;;;;;2.53;1.27;;;;;;;;;;5053908;28;20027;-59
2023/10/04 00:40:59;;;;;;;1.75;1.08;;;;;;;;;;5054380;28;20059;-58
2023/10/04 00:43:25;;;;;;;4.60;1.67;;;;;;;;;;5053608;28;20467;-59
2023/10/04 00:45:53;;;;;;;1.83;1.10;;;;;;;;;;5053988;28;20075;-59
2023/10/04 00:48:23;;;;;;;1.95;1.25;;;;;;;;;;5053955;28;20052;-59
2023/10/04 00:50:49;;;;;;;2.53;1.60;;;;;;;;;;5054502;28;20368;-59
2023/10/04 00:53:17;;;;;;;8.32;1.35;;;;;;;;;;5054328;28;20060;-59
2023/10/04 00:55:44;;;;;;;2.78;1.10;;;;;;;;;;5053793;28;20035;-59
2023/10/04 00:58:14;;;;;;;2.55;1.15;;;;;;;;;;5054036;28;20458;-59
2023/10/04 01:00:44;;;;;;;3.70;1.45;;;;;;;;;;5054371;28;20376;-59
2023/10/04 01:03:10;;;;;;;6.55;1.58;;;;;;;;;;5053771;28;20090;-58
2023/10/04 01:05:39;;;;;;;3.42;1.52;;;;;;;;;;5053715;28;20032;-59
2023/10/04 01:08:06;;;;;;;2.67;1.58;;;;;;;;;;5054402;28;20462;-59
2023/10/04 01:10:34;;;;;;;2.63;1.42;;;;;;;;;;5054462;28;20166;-59
2023/10/04 01:13:05;;;;;;;2.80;1.48;;;;;;;;;;5053479;28;20021;-58
2023/10/04 01:15:36;;;;;;;;;;;;;;;;;;5054269;28;20021;-59
2023/10/04 01:18:06;;;;;;;2.35;1.35;;;;;;;;;;5053582;28;19905;-58
2023/10/04 01:20:33;;;;;;;3.10;1.85;;;;;;;;;;5054051;28;20036;-58
2023/10/04 01:23:04;;;;;;;2.58;1.45;;;;;;;;;;5053460;28;20025;-59
2023/10/04 01:25:37;;;;;;;2.05;1.30;;;;;;;;;;5053513;28;20025;-58
2023/10/04 01:28:12;;;;;;;5.43;1.45;;;;;;;;;;5053478;28;20061;-58
2023/10/04 01:30:38;;;;;;;2.92;1.38;;;;;;;;;;5054272;28;20120;-59
2023/10/04 01:33:07;;;;;;;2.65;1.63;;;;;;;;;;5053887;28;20033;-59
2023/10/04 01:35:33;;;;;;;6.55;1.77;;;;;;;;;;5053357;28;20056;-58
2023/10/04 01:37:59;;;;;;;2.55;1.40;;;;;;;;;;5053906;28;20116;-58
2023/10/04 01:40:26;;;;;;;2.95;1.63;;;;;;;;;;5053477;28;20055;-59
2023/10/04 01:42:54;;;;;;;3.65;1.83;;;;;;;;;;5053329;28;20438;-59
2023/10/04 01:45:21;;;;;;;3.17;1.38;;;;;;;;;;5053239;28;20112;-59
2023/10/04 01:47:47;;;;;;;2.45;1.48;;;;;;;;;;5053838;28;20027;-58
2023/10/04 01:50:13;;;;;;;3.05;1.48;;;;;;;;;;5053493;28;20037;-59
2023/10/04 01:52:39;;;;;;;2.53;1.10;;;;;;;;;;5053171;28;20063;-58
2023/10/04 01:55:10;;;;;;;3.50;1.60;;;;;;;;;;5055674;28;20418;-58
2023/10/04 01:57:41;;;;;;;3.25;1.73;;;;;;;;;;5057680;28;20048;-59
2023/10/04 02:00:17;;;;;;;2.20;1.33;;;;;;;;;;5057801;28;20033;-58
2023/10/04 02:02:44;;;;;;;3.25;1.45;;;;;;;;;;5057140;28;20116;-59
2023/10/04 02:05:11;;;;;;;5.15;1.35;;;;;;;;;;5056843;28;20455;-58
2023/10/04 02:07:38;;;;;;;2.85;1.40;;;;;;;;;;5056931;28;20466;-59
2023/10/04 02:10:05;;;;;;;1.77;1.00;;;;;;;;;;5056894;28;20043;-59
2023/10/04 02:12:33;;;;;;;2.85;1.50;;;;;;;;;;5056974;28;20029;-59
2023/10/04 02:14:59;;;;;;;3.33;1.23;;;;;;;;;;5057472;28;20202;-59
2023/10/04 02:17:25;;;;;;;2.35;1.10;;;;;;;;;;5056928;28;20362;-59
2023/10/04 02:19:53;;;;;;;2.20;1.30;;;;;;;;;;5057394;28;20029;-58
2023/10/04 02:22:20;;;;;;;2.80;1.55;;;;;;;;;;5056685;28;20033;-59
2023/10/04 02:24:47;;;;;;;5.07;1.50;;;;;;;;;;5056770;28;20024;-58
2023/10/04 02:27:18;;;;;;;2.92;1.38;;;;;;;;;;5056616;28;20394;-59
2023/10/04 02:29:46;;;;;;;3.15;1.48;;;;;;;;;;5057113;28;20048;-58
2023/10/04 02:32:13;;;;;;;3.40;1.77;;;;;;;;;;5056605;28;20021;-59
2023/10/04 02:34:41;;;;;;;4.03;1.65;;;;;;;;;;5056633;28;20107;-59
2023/10/04 02:37:07;;;;;;;3.90;1.20;;;;;;;;;;5057064;28;20116;-58
2023/10/04 02:39:36;;;;;;;3.92;1.48;;;;;;;;;;5057235;28;20060;-59
2023/10/04 02:42:03;;;;;;;4.18;2.13;;;;;;;;;;5056005;28;20083;-58
2023/10/04 02:44:29;;;;;;;3.28;1.50;;;;;;;;;;5056348;28;20028;-58
2023/10/04 02:46:55;;;;;;;3.03;1.50;;;;;;;;;;5056283;28;20036;-59
2023/10/04 02:49:21;;;;;;;3.38;1.50;;;;;;;;;;5056489;28;20040;-59
2023/10/04 02:51:47;;;;;;;3.35;1.60;;;;;;;;;;5056470;28;20029;-58
2023/10/04 02:54:13;;;;;;;2.35;1.23;;;;;;;;;;5056266;28;20052;-59
2023/10/04 02:56:45;;;;;;;3.35;1.45;;;;;;;;;;5055973;28;20025;-59
2023/10/04 02:59:11;;;;;;;2.15;1.35;;;;;;;;;;5056644;28;20344;-58
2023/10/04 03:01:37;;;;;;;2.17;1.25;;;;;;;;;;5056519;28;20414;-58
2023/10/04 03:04:03;;;;;;;2.60;1.38;;;;;;;;;;5055913;28;20025;-58
2023/10/04 03:06:31;;;;;;;2.40;1.42;;;;;;;;;;5055823;28;20060;-59
2023/10/04 03:08:57;;;;;;;2.30;1.42;;;;;;;;;;5055514;28;20378;-58
2023/10/04 03:11:23;;;;;;;4.15;1.42;;;;;;;;;;5056601;28;20029;-58
2023/10/04 03:13:49;;;;;;;2.65;1.42;;;;;;;;;;5055843;28;20029;-59
2023/10/04 03:16:15;;;;;;;4.82;1.52;;;;;;;;;;5055767;28;20101;-59
2023/10/04 03:18:42;;;;;;;2.72;1.40;;;;;;;;;;5056230;28;20024;-58
2023/10/04 03:21:13;;;;;;;2.28;1.42;;;;;;;;;;5055935;28;20086;-58
2023/10/04 03:23:42;;;;;;;2.40;1.27;;;;;;;;;;5056218;28;20029;-59
2023/10/04 03:26:12;;;;;;;2.08;1.45;;;;;;;;;;5055562;28;20418;-59
2023/10/04 03:28:38;;;;;;;2.58;1.20;;;;;;;;;;5055988;28;20029;-58
2023/10/04 03:31:18;;;;;;;3.08;1.50;;;;;;;;;;5055413;28;20505;-59
2023/10/04 03:33:49;;;;;;;2.38;1.30;;;;;;;;;;5055511;28;20037;-58
2023/10/04 03:36:18;;;;;;;4.25;1.73;;;;;;;;;;5056315;28;20053;-59
2023/10/04 03:38:44;;;;;;;3.40;1.73;;;;;;;;;;5055303;28;20032;-58
2023/10/04 03:41:16;;;;;;;3.78;1.52;;;;;;;;;;5055255;28;20037;-59
2023/10/04 03:43:42;;;;;;;2.92;1.50;;;;;;;;;;5055675;28;20029;-58
2023/10/04 03:46:18;;;;;;;2.90;1.60;;;;;;;;;;5054761;28;20194;-58
2023/10/04 03:48:51;;;;;;;3.33;1.67;;;;;;;;;;5055152;28;20025;-58
2023/10/04 03:51:20;;;;;;;2.58;1.17;;;;;;;;;;5055638;28;20039;-59
2023/10/04 03:53:50;;;;;;;3.50;1.65;;;;;;;;;;5055068;28;20040;-58
2023/10/04 03:56:16;;;;;;;2.65;1.48;;;;;;;;;;5055277;28;20348;-59
2023/10/04 03:58:42;;;;;;;3.03;1.67;;;;;;;;;;5055006;28;20021;-58
2023/10/04 04:01:10;;;;;;;3.28;1.95;;;;;;;;;;5055194;28;20059;-59
2023/10/04 04:03:36;;;;;;;2.95;1.60;;;;;;;;;;5055732;28;20359;-59
2023/10/04 04:06:02;;;;;;;2.10;1.10;;;;;;;;;;5054545;28;20024;-58
2023/10/04 04:08:28;;;;;;;2.97;1.52;;;;;;;;;;5054779;28;20057;-58
2023/10/04 04:10:54;;;;;;;4.68;1.60;;;;;;;;;;5055293;28;20025;-58
2023/10/04 04:13:20;;;;;;;3.15;1.90;;;;;;;;;;5054931;28;20021;-59
2023/10/04 04:15:47;;;;;;;3.13;1.88;;;;;;;;;;5054427;28;20025;-59
2023/10/04 04:18:17;;;;;;;3.70;1.40;;;;;;;;;;5054419;28;20363;-58
2023/10/04 04:20:43;;;;;;;2.90;1.63;;;;;;;;;;5055145;28;20371;-58
2023/10/04 04:23:10;;;;;;;3.60;1.48;;;;;;;;;;5054474;28;20035;-59
2023/10/04 04:25:38;;;;;;;3.58;1.88;;;;;;;;;;5054762;28;20017;-58
2023/10/04 04:28:04;;;;;;;4.07;1.95;;;;;;;;;;5054818;28;20032;-59
2023/10/04 04:30:35;;;;;;;3.10;1.20;;;;;;;;;;5054444;28;20112;-58
2023/10/04 04:33:04;;;;;;;4.15;2.05;;;;;;;;;;5054896;28;20107;-58
2023/10/04 04:37:57;;;;;;;4.38;1.73;;;;;;;;;;5054267;28;20062;-58
2023/10/04 04:40:29;;;;;;;2.67;1.50;;;;;;;;;;5054527;28;20115;-58
2023/10/04 04:43:01;;;;;;;4.43;2.17;;;;;;;;;;5054817;28;20029;-58
2023/10/04 04:45:27;;;;;;;3.35;1.75;;;;;;;;;;5054709;28;20068;-59
2023/10/04 04:47:55;;;;;;;2.22;1.60;;;;;;;;;;5054621;28;20371;-58
2023/10/04 04:50:23;;;;;;;4.82;1.98;;;;;;;;;;5054389;28;20036;-58
2023/10/04 04:52:49;;;;;;;2.35;1.55;;;;;;;;;;5054037;28;20094;-58
2023/10/04 04:55:14;;;;;;;5.05;2.35;;;;;;;;;;5054352;28;20365;-58
2023/10/04 04:57:40;;;;;;;3.10;1.38;;;;;;;;;;5053852;28;20108;-59
2023/10/04 05:00:31;;;;;;;3.28;1.60;;;;;;;;;;5054695;28;20367;-59
2023/10/04 05:02:52;;;;;;;2.97;1.40;;;;;;;;;;5053752;28;20033;-59
2023/10/04 05:05:20;;;;;;;6.93;2.20;;;;;;;;;;5054618;28;20462;-58
2023/10/04 05:07:47;;;;;;;2.70;1.45;;;;;;;;;;5053566;28;20036;-58
2023/10/04 05:10:14;;;;;;;2.28;1.42;;;;;;;;;;5053938;28;20043;-58
2023/10/04 05:12:41;;;;;;;3.03;1.60;;;;;;;;;;5053400;28;20451;-59
2023/10/04 05:15:22;;;;;;;5.60;2.00;;;;;;;;;;5053552;28;20025;-58
2023/10/04 05:17:51;;;;;;;3.08;1.63;;;;;;;;;;5054442;28;20033;-58
2023/10/04 05:20:19;;;;;;;3.03;1.50;;;;;;;;;;5054225;28;20086;-58
2023/10/04 05:22:46;;;;;;;2.45;1.58;;;;;;;;;;5054017;28;20025;-58
2023/10/04 05:25:12;;;;;;;2.35;1.38;;;;;;;;;;5053519;28;20032;-58
2023/10/04 05:27:38;;;;;;;2.70;1.38;;;;;;;;;;5053472;28;20021;-58
2023/10/04 05:30:06;;;;;;;4.13;1.65;;;;;;;;;;5053946;28;20033;-58
2023/10/04 05:32:32;;;;;;;4.05;1.40;;;;;;;;;;5053438;28;20033;-58
2023/10/04 05:34:58;;;;;;;3.95;2.03;;;;;;;;;;5053028;28;20049;-59
2023/10/04 05:37:24;;;;;;;2.92;1.48;;;;;;;;;;5053184;28;20028;-58
2023/10/04 05:39:51;;;;;;;4.75;1.77;;;;;;;;;;5054169;28;20032;-58
2023/10/04 05:42:17;;;;;;;5.15;2.10;;;;;;;;;;5053646;28;20047;-58
2023/10/04 05:44:43;;;;;;;3.47;2.00;;;;;;;;;;5053366;28;20104;-58
2023/10/04 05:47:09;;;;;;;4.75;1.50;;;;;;;;;;5053578;28;20017;-58
2023/10/04 05:49:35;;;;;;;3.47;1.98;;;;;;;;;;5054114;28;20025;-59
2023/10/04 05:52:01;;;;;;;3.33;1.63;;;;;;;;;;5054063;28;20072;-58
2023/10/04 05:54:27;;;;;;;3.15;1.77;;;;;;;;;;5053026;28;20036;-58
2023/10/04 05:56:53;;;;;;;3.47;1.88;;;;;;;;;;5053634;28;20032;-58
2023/10/04 05:59:19;;;;;;;3.95;1.88;;;;;;;;;;5053248;28;20033;-59
2023/10/04 06:01:44;;;;;;;3.63;1.88;;;;;;;;;;5053929;28;20030;-58
2023/10/04 06:04:11;;;;;;;2.67;1.65;;;;;;;;;;5053227;28;20025;-58
2023/10/04 06:06:37;;;;;;;4.28;1.90;;;;;;;;;;5053409;28;20078;-58
2023/10/04 06:09:06;;;;;;;4.53;1.85;;;;;;;;;;5053203;28;20044;-58
2023/10/04 06:11:32;;;;;;;3.10;1.70;;;;;;;;;;5053106;28;20498;-58
2023/10/04 06:13:59;;;;;;;6.18;2.08;;;;;;;;;;5052739;28;20017;-58
2023/10/04 06:16:26;;;;;;;2.75;1.35;;;;;;;;;;5053234;28;20040;-58
2023/10/04 06:18:52;;;;;;;3.58;1.83;;;;;;;;;;5053510;28;20029;-58
2023/10/04 06:21:19;;;;;;;3.80;1.80;;;;;;;;;;5053017;28;20116;-58
2023/10/04 06:23:45;;;;;;;2.00;1.33;;;;;;;;;;5052685;28;20029;-58
2023/10/04 06:26:16;;;;;;;4.95;1.73;;;;;;;;;;5053391;28;20443;-58
2023/10/04 06:28:43;;;;;;;2.92;1.52;;;;;;;;;;5054299;28;20079;-58
2023/10/04 06:31:09;;;;;;;2.63;1.75;;;;;;;;;;5053309;28;20121;-58
2023/10/04 06:33:35;;;;;;;2.08;1.05;;;;;;;;;;5052877;28;20057;-58
2023/10/04 06:36:00;;;;;;;1.92;1.00;;;;;;;;;;5052842;28;20382;-58
2023/10/04 06:38:26;;;;;;;2.88;1.60;;;;;;;;;;5052973;28;20033;-58
2023/10/04 06:40:52;;;;;;;1.95;1.08;;;;;;;;;;5055237;28;20021;-58
2023/10/04 06:43:19;;;;;;;3.22;1.38;;;;;;;;;;5056135;28;20025;-58
2023/10/04 06:45:45;;;;;;;1.75;0.70;;;;;;;;;;5056096;28;20032;-58
2023/10/04 06:48:11;;;;;;;3.70;1.75;;;;;;;;;;5056183;28;20025;-59
2023/10/04 06:50:40;;;;;;;5.88;2.03;;;;;;;;;;5056783;28;20432;-59
2023/10/04 06:53:06;;;;;;;3.35;1.95;;;;;;;;;;5056174;28;20398;-59
2023/10/04 06:55:34;;;;;;;4.00;2.33;;;;;;;;;;5056069;28;20056;-59
2023/10/04 06:58:00;;;;;;;2.10;1.63;;;;;;;;;;5056536;28;20044;-58
2023/10/04 07:00:35;;;;;;;2.97;2.13;;;;;;;;;;5056344;28;20029;-59
2023/10/04 07:03:01;;;;;;;3.28;1.60;;;;;;;;;;5056314;28;20025;-59
2023/10/04 07:05:29;;;;;;;3.72;1.38;;;;;;;;;;5055969;28;20366;-59
2023/10/04 07:07:59;;;;;;;3.92;1.42;;;;;;;;;;5056180;28;20403;-58
2023/10/04 07:10:26;;;;;;;4.70;1.77;;;;;;;;;;5056422;28;20418;-58
2023/10/04 07:12:52;;;;;;;4.85;1.98;;;;;;;;;;5055618;28;20029;-59
2023/10/04 07:15:18;;;;;;;4.20;1.85;;;;;;;;;;5055838;28;20032;-59
2023/10/04 07:17:45;;;;;;;2.78;1.48;;;;;;;;;;5055884;28;20025;-58
2023/10/04 07:20:15;;;;;;;4.70;2.25;;;;;;;;;;5055734;28;20032;-59
2023/10/04 07:22:42;;;;;;;3.75;1.75;;;;;;;;;;5055416;28;20451;-58
2023/10/04 07:25:08;;;;;;;4.80;2.63;;;;;;;;;;5056184;28;20090;-58
2023/10/04 07:27:35;;;;;;;3.97;2.00;;;;;;;;;;5055545;28;20033;-58
2023/10/04 07:30:01;;;;;;;3.20;2.20;;;;;;;;;;5055815;28;20040;-58
2023/10/04 07:32:27;;;;;;;3.13;1.88;;;;;;;;;;5055326;28;20021;-58
2023/10/04 07:34:53;;;;;;;8.07;2.17;;;;;;;;;;5055399;28;20470;-59
2023/10/04 07:37:19;;;;;;;7.03;2.20;;;;;;;;;;5055363;28;20031;-58
2023/10/04 07:39:45;;;;;;;4.03;1.80;;;;;;;;;;5055798;28;20371;-58
2023/10/04 07:42:11;;;;;;;3.75;1.83;;;;;;;;;;5056119;28;20048;-59
2023/10/04 07:44:37;;;;;;;2.33;1.55;;;;;;;;;;5055849;28;20035;-59
2023/10/04 07:47:04;;;;;;;3.08;1.75;;;;;;;;;;5055021;28;20078;-58
2023/10/04 07:49:31;;;;;;;3.90;2.20;;;;;;;;;;5055917;28;20029;-58
2023/10/04 07:51:57;;;;;;;5.72;1.50;;;;;;;;;;5054041;28;20029;-59
2023/10/04 07:54:23;;;;;;;3.00;1.52;;;;;;;;;;5055072;28;20378;-58
2023/10/04 07:56:49;;;;;;;2.70;1.65;;;;;;;;;;5055313;28;20032;-58
2023/10/04 07:59:15;;;;;;;2.70;1.40;;;;;;;;;;5054985;28;20025;-58
2023/10/04 08:01:41;;;;;;;2.22;1.52;;;;;;;;;;5055238;28;20371;-58
2023/10/04 08:04:07;;;;;;;5.13;2.00;;;;;;;;;;5053674;28;20468;-59
2023/10/04 08:06:40;;;;;;;3.20;1.35;;;;;;;;;;5055401;28;20027;-59
2023/10/04 08:09:06;;;;;;;4.88;1.65;;;;;;;;;;5055416;28;20036;-58
2023/10/04 08:11:33;;;;;;;5.30;2.15;;;;;;;;;;5055561;28;20033;-59
2023/10/04 08:13:59;;;;;;;3.55;1.20;;;;;;;;;;5054672;28;20079;-59
2023/10/04 08:16:25;;;;;;;4.53;1.83;;;;;;;;;;5054431;28;20028;-59
2023/10/04 08:18:51;;;;;;;4.13;1.23;;;;;;;;;;5054634;28;20029;-59
2023/10/04 08:21:17;;;;;;;2.45;0.82;;;;;;;;;;5055189;28;20497;-59
2023/10/04 08:23:44;;;;;;;4.00;1.10;;;;;;;;;;5054325;28;20025;-58
2023/10/04 08:26:14;;;;;;;1.50;0.88;;;;;;;;;;5055258;28;20035;-58
2023/10/04 08:28:41;;;;;;;2.90;0.82;;;;;;;;;;5055129;28;20112;-59
2023/10/04 08:31:08;;;;;;;1.42;0.55;;;;;;;;;;5054523;28;20033;-59
2023/10/04 08:33:34;;;;;;;3.65;0.98;;;;;;;;;;5054396;28;20091;-59
2023/10/04 08:36:08;;;;;;;3.42;1.08;;;;;;;;;;5054589;28;20044;-58
2023/10/04 08:38:34;;;;;;;3.08;0.90;;;;;;;;;;5054854;28;20403;-58
2023/10/04 08:41:02;;;;;;;1.60;0.85;;;;;;;;;;5054538;28;20068;-59
2023/10/04 08:43:28;;;;;;;2.90;1.02;;;;;;;;;;5053892;28;20459;-59
2023/10/04 08:45:55;;;;;;;2.03;0.95;;;;;;;;;;5054792;28;20386;-59
2023/10/04 08:48:22;;;;;;;2.53;0.50;;;;;;;;;;5054343;28;20069;-58
2023/10/04 08:50:49;;;;;;;2.58;0.75;;;;;;;;;;5054566;28;20107;-58
2023/10/04 08:53:34;;;;;;;2.80;1.38;;;;;;;;;;5054055;28;20029;-58
2023/10/04 08:56:01;;;;;;;4.53;1.38;;;;;;;;;;5054199;28;20358;-58
2023/10/04 08:58:28;;;;;;;2.22;1.10;;;;;;;;;;5053663;28;20017;-59
2023/10/04 09:00:54;;;;;;;2.30;0.85;;;;;;;;;;5054485;28;20029;-58
2023/10/04 09:03:21;;;;;;;3.65;1.27;;;;;;;;;;5053191;28;20111;-58
2023/10/04 09:05:50;;;;;;;2.20;0.65;;;;;;;;;;5053792;28;20025;-59
2023/10/04 09:08:16;;;;;;;3.63;0.80;;;;;;;;;;5053722;28;20060;-58
2023/10/04 09:10:43;;;;;;;1.70;0.77;;;;;;;;;;5054261;28;20395;-58
2023/10/04 09:13:09;;;;;;;2.63;0.95;;;;;;;;;;5054223;28;20072;-58
2023/10/04 09:15:35;;;;;;;0.82;0.55;;;;;;;;;;5053673;28;20025;-59
2023/10/04 09:18:03;;;;;;;1.83;0.80;;;;;;;;;;5053879;28;20021;-59
2023/10/04 09:20:32;;;;;;;3.58;1.50;;;;;;;;;;5054034;28;20039;-59
2023/10/04 09:23:03;;;;;;;1.88;0.65;;;;;;;;;;5053604;28;20039;-59
2023/10/04 09:25:36;;;;;;;1.67;0.70;;;;;;;;;;5054521;28;20115;-59
2023/10/04 09:28:04;;;;;;;2.17;0.77;;;;;;;;;;5054125;28;20108;-58
2023/10/04 09:30:32;;;;;;;1.35;0.55;;;;;;;;;;5054092;28;20064;-59
2023/10/04 09:32:58;;;;;;;2.28;0.80;;;;;;;;;;5053549;28;20032;-58
2023/10/04 09:35:40;;;;;;;1.20;0.85;;;;;;;;;;5053708;28;20103;-59
2023/10/04 09:38:15;;;;;;;2.42;0.80;;;;;;;;;;5053956;28;20366;-58
2023/10/04 09:40:49;;;;;;;3.55;1.35;;;;;;;;;;5053721;28;20037;-59
2023/10/04 09:43:15;;;;;;;1.20;0.50;;;;;;;;;;5054017;28;20485;-58
2023/10/04 09:45:55;;;;;;;1.77;0.70;;;;;;;;;;5053157;28;20026;-59
2023/10/04 09:48:21;;;;;;;1.33;0.55;;;;;;;;;;5054018;28;20450;-59
2023/10/04 09:50:47;;;;;;;6.10;1.15;;;;;;;;;;5053618;28;20088;-59
2023/10/04 09:53:14;;;;;;;1.65;0.75;;;;;;;;;;5054122;28;20029;-59
2023/10/04 09:55:41;;;;;;;2.20;0.73;;;;;;;;;;5053192;28;20025;-59
2023/10/04 09:58:08;;;;;;;3.08;1.30;;;;;;;;;;5053734;28;20018;-59
2023/10/04 10:00:35;;;;;;;2.15;0.90;;;;;;;;;;5054109;28;20017;-58
2023/10/04 10:03:04;;;;;;;1.92;0.80;;;;;;;;;;5053178;28;20026;-59
2023/10/04 10:05:32;;;;;;;5.68;0.98;;;;;;;;;;5053691;28;20021;-59
2023/10/04 10:08:06;;;;;;;3.85;1.45;;;;;;;;;;5053120;28;20021;-59
2023/10/04 10:10:43;;;;;;;2.20;0.95;;;;;;;;;;5053207;28;20091;-59
2023/10/04 10:13:09;;;;;;;2.08;1.15;;;;;;;;;;5053920;28;20032;-59
2023/10/04 10:15:37;;;;;;;1.85;0.77;;;;;;;;;;5055435;28;20355;-59
2023/10/04 10:18:04;;;;;;;2.15;1.10;;;;;;;;;;5056920;28;20056;-59
2023/10/04 10:20:30;;;;;;;2.60;1.10;;;;;;;;;;5057469;28;20455;-59
2023/10/04 10:22:59;;;;;;;1.90;0.98;;;;;;;;;;5056815;28;20071;-59
2023/10/04 10:25:26;;;;;;;2.33;0.80;;;;;;;;;;5056724;28;20538;-59
2023/10/04 10:27:56;;;;;;;2.78;0.95;;;;;;;;;;5056721;28;20032;-59
2023/10/04 10:30:23;;;;;;;2.00;0.90;;;;;;;;;;5057284;28;20021;-59
2023/10/04 10:32:51;;;;;;;1.90;0.98;;;;;;;;;;5056654;28;20037;-59
2023/10/04 10:35:37;;;;;;;1.67;0.82;;;;;;;;;;5056954;28;20043;-59
2023/10/04 10:38:21;;;;;;;1.92;0.95;;;;;;;;;;5056842;28;20025;-59
2023/10/04 10:40:47;;;;;;;3.65;1.00;;;;;;;;;;5057075;28;20359;-59
2023/10/04 10:43:14;;;;;;;1.77;0.82;;;;;;;;;;5056653;28;20017;-59
2023/10/04 10:45:41;;;;;;;1.52;0.90;;;;;;;;;;5056448;28;20060;-59
2023/10/04 10:48:08;;;;;;;1.88;0.80;;;;;;;;;;5056836;28;20032;-59
2023/10/04 10:50:34;;;;;;;2.47;1.30;;;;;;;;;;5057141;28;20032;-59
2023/10/04 10:53:05;;;;;;;3.72;0.88;;;;;;;;;;5056540;28;20025;-59
2023/10/04 10:55:33;;;;;;;3.63;0.85;;;;;;;;;;5056774;28;20363;-59
2023/10/04 10:57:59;;;;;;;2.47;0.70;;;;;;;;;;5056383;28;20054;-59
2023/10/04 11:00:32;;;;;;;3.97;1.27;;;;;;;;;;5056075;28;20029;-59
2023/10/04 11:02:58;;;;;;;2.00;0.80;;;;;;;;;;5056644;28;20360;-59
2023/10/04 11:05:25;;;;;;;4.15;0.80;;;;;;;;;;5055851;28;20494;-59
2023/10/04 11:07:52;;;;;;;1.60;0.68;;;;;;;;;;5056339;28;20053;-59
2023/10/04 11:10:19;;;;;;;8.07;1.05;;;;;;;;;;5056538;28;20036;-59
2023/10/04 11:12:46;;;;;;;2.65;0.93;;;;;;;;;;5055928;28;20029;-59
2023/10/04 11:15:12;;;;;;;3.67;0.90;;;;;;;;;;5056405;28;20071;-59
2023/10/04 11:17:39;;;;;;;3.75;0.98;;;;;;;;;;5056567;28;20020;-59
2023/10/04 11:20:12;;;;;;;2.03;0.63;;;;;;;;;;5056598;28;20082;-59
2023/10/04 11:22:38;;;;;;;3.17;1.00;;;;;;;;;;5056251;28;20051;-59
2023/10/04 11:25:08;;;;;;;1.80;0.88;;;;;;;;;;5055785;28;20051;-59
2023/10/04 11:27:37;;;;;;;1.77;0.93;;;;;;;;;;5055427;28;20025;-59
2023/10/04 11:30:03;;;;;;;1.73;0.88;;;;;;;;;;5056106;28;20068;-59
2023/10/04 11:32:29;;;;;;;1.80;0.80;;;;;;;;;;5055451;28;20366;-59
2023/10/04 11:34:57;;;;;;;2.85;1.35;;;;;;;;;;5055527;28;20124;-59
2023/10/04 11:37:29;;;;;;;4.25;1.42;;;;;;;;;;5055420;28;20021;-59
2023/10/04 11:39:55;;;;;;;3.28;1.10;;;;;;;;;;5055494;28;20025;-58
2023/10/04 11:42:23;;;;;;;2.72;0.88;;;;;;;;;;5055977;28;20024;-59
2023/10/04 11:44:49;;;;;;;1.85;0.70;;;;;;;;;;5055214;28;20031;-59
2023/10/04 11:47:26;;;;;;;6.13;1.13;;;;;;;;;;5055251;28;20017;-59
2023/10/04 11:49:55;;;;;;;3.28;0.90;;;;;;;;;;5055736;28;20064;-59
2023/10/04 11:52:22;;;;;;;1.55;0.93;;;;;;;;;;5055458;28;20033;-59
2023/10/04 11:54:48;;;;;;;3.00;0.88;;;;;;;;;;5055105;28;20054;-59
2023/10/04 11:57:27;;;;;;;2.03;0.82;;;;;;;;;;5054972;28;20017;-59
2023/10/04 11:59:56;;;;;;;2.85;1.13;;;;;;;;;;5055373;28;20025;-59
2023/10/04 12:02:22;;;;;;;1.55;0.80;;;;;;;;;;5055182;28;20021;-59
2023/10/04 12:04:49;;;;;;;3.78;1.35;;;;;;;;;;5055649;28;20025;-59
2023/10/04 12:07:15;;;;;;;2.28;0.93;;;;;;;;;;5055614;28;20025;-59
2023/10/04 12:09:41;;;;;;;1.52;0.70;;;;;;;;;;5055614;28;20029;-59
2023/10/04 12:12:07;;;;;;;1.95;0.80;;;;;;;;;;5054777;28;20033;-59
2023/10/04 12:14:34;;;;;;;5.35;1.23;;;;;;;;;;5054989;28;20063;-59
2023/10/04 12:17:04;;;;;;;2.80;1.17;;;;;;;;;;5055461;28;20029;-59
2023/10/04 12:19:34;;;;;;;1.92;1.00;;;;;;;;;;5054966;28;20104;-59
2023/10/04 12:22:02;;;;;;;2.47;1.17;;;;;;;;;;5055064;28;20028;-59
2023/10/04 12:24:30;;;;;;;3.20;1.30;;;;;;;;;;5054583;28;20418;-59
2023/10/04 12:26:58;;;;;;;1.63;0.88;;;;;;;;;;5055223;28;20032;-59
2023/10/04 12:29:24;;;;;;;1.70;0.73;;;;;;;;;;5054859;28;20029;-59
2023/10/04 12:31:50;;;;;;;2.08;0.40;;;;;;;;;;5054386;28;20051;-60
2023/10/04 12:34:16;;;;;;;1.40;0.70;;;;;;;;;;5054752;28;20403;-59
2023/10/04 12:36:42;;;;;;;1.35;0.70;;;;;;;;;;5054490;28;20025;-59
2023/10/04 12:39:08;;;;;;;2.33;1.25;;;;;;;;;;5053367;28;20032;-59
2023/10/04 12:41:34;;;;;;;3.67;1.20;;;;;;;;;;5054807;28;20111;-59
2023/10/04 12:44:02;;;;;;;2.35;0.82;;;;;;;;;;5054033;28;20036;-59
2023/10/04 12:46:28;;;;;;;2.17;0.90;;;;;;;;;;5054584;28;20025;-59
2023/10/04 12:48:54;;;;;;;1.67;0.70;;;;;;;;;;5053982;28;20021;-59
2023/10/04 12:51:20;;;;;;;2.42;1.13;;;;;;;;;;5054284;28;20025;-59
2023/10/04 12:53:46;;;;;;;2.17;0.90;;;;;;;;;;5053868;28;20021;-59
2023/10/04 12:56:12;;;;;;;1.98;0.90;;;;;;;;;;5053934;28;20017;-59
2023/10/04 12:58:38;;;;;;;2.20;0.95;;;;;;;;;;5054703;28;20032;-59
2023/10/04 13:01:05;;;;;;;3.45;1.17;;;;;;;;;;5054502;28;20409;-59
2023/10/04 13:03:31;;;;;;;1.08;0.60;;;;;;;;;;5053894;28;20017;-59
2023/10/04 13:05:57;;;;;;;2.22;1.08;;;;;;;;;;5053848;28;20079;-59
2023/10/04 13:08:25;;;;;;;2.55;0.65;;;;;;;;;;5054330;28;20381;-59
2023/10/04 13:10:51;;;;;;;3.60;0.90;;;;;;;;;;5054293;28;20029;-59
2023/10/04 13:13:18;;;;;;;1.73;0.70;;;;;;;;;;5053772;28;20035;-59
2023/10/04 13:15:44;;;;;;;2.13;0.90;;;;;;;;;;5054309;28;20029;-59
2023/10/04 13:18:11;;;;;;;1.48;0.50;;;;;;;;;;5054194;28;20127;-59
2023/10/04 13:20:40;;;;;;;3.20;0.73;;;;;;;;;;5054193;28;20029;-59
2023/10/04 13:23:06;;;;;;;2.33;0.93;;;;;;;;;;5054041;28;20379;-59
2023/10/04 13:25:33;;;;;;;1.58;0.65;;;;;;;;;;5053454;28;20131;-59
2023/10/04 13:28:00;;;;;;;1.83;0.88;;;;;;;;;;5053579;28;20025;-59
2023/10/04 13:30:27;;;;;;;3.83;0.80;;;;;;;;;;5053545;28;20064;-59
2023/10/04 13:32:53;;;;;;;4.22;1.27;;;;;;;;;;5053815;28;20474;-59
2023/10/04 13:35:20;;;;;;;1.33;0.50;;;;;;;;;;5053966;28;20095;-59
2023/10/04 13:37:52;;;;;;;1.95;0.95;;;;;;;;;;5053463;28;20032;-59
2023/10/04 13:40:22;;;;;;;1.75;0.88;;;;;;;;;;5054046;28;20025;-59
2023/10/04 13:42:51;;;;;;;1.85;0.80;;;;;;;;;;5054288;28;20359;-59
2023/10/04 13:45:18;;;;;;;1.92;0.60;;;;;;;;;;5053365;28;20033;-59
2023/10/04 13:47:45;;;;;;;3.20;1.33;;;;;;;;;;5053373;28;20021;-59
2023/10/04 13:50:11;;;;;;;1.80;0.73;;;;;;;;;;5056532;28;20025;-59
2023/10/04 13:52:39;;;;;;;3.20;0.93;;;;;;;;;;5057349;28;20083;-59
2023/10/04 13:55:05;;;;;;;2.97;1.10;;;;;;;;;;5057372;28;20029;-59
2023/10/04 13:57:31;;;;;;;2.10;0.77;;;;;;;;;;5056897;28;20021;-59
2023/10/04 13:59:57;;;;;;;1.50;0.65;;;;;;;;;;5057284;28;20021;-59
2023/10/04 14:02:23;;;;;;;1.85;0.70;;;;;;;;;;5057996;28;20032;-59
2023/10/04 14:04:49;;;;;;;1.42;0.80;;;;;;;;;;5057171;28;20429;-59
2023/10/04 14:07:16;;;;;;;2.10;0.63;;;;;;;;;;5057178;28;20029;-58
2023/10/04 14:09:43;;;;;;;1.77;0.98;;;;;;;;;;5058119;28;20036;-59
2023/10/04 14:12:12;;;;;;;1.73;0.73;;;;;;;;;;5056781;28;20552;-59
2023/10/04 14:14:38;;;;;;;2.65;1.05;;;;;;;;;;5057701;28;20056;-59
2023/10/04 14:17:08;;;;;;;1.25;0.60;;;;;;;;;;5056850;28;20426;-59
2023/10/04 14:19:36;;;;;;;3.75;0.75;;;;;;;;;;5057373;28;20043;-59
2023/10/04 14:22:05;;;;;;;4.03;0.95;;;;;;;;;;5056869;28;20029;-59
2023/10/04 14:24:31;;;;;;;1.60;0.90;;;;;;;;;;5056801;28;20459;-59
2023/10/04 14:27:01;;;;;;;2.70;0.88;;;;;;;;;;5057302;28;20025;-59
2023/10/04 14:29:27;;;;;;;1.42;0.52;;;;;;;;;;5057214;28;20025;-59
2023/10/04 14:31:54;;;;;;;2.17;1.05;;;;;;;;;;5056669;28;20040;-59
2023/10/04 14:34:20;;;;;;;1.45;0.70;;;;;;;;;;5056199;28;20489;-59
2023/10/04 14:36:46;;;;;;;0.90;0.45;;;;;;;;;;5057027;28;20028;-58
2023/10/04 14:39:13;;;;;;;2.00;0.80;;;;;;;;;;5056444;28;20459;-59
2023/10/04 14:41:39;;;;;;;1.23;0.50;;;;;;;;;;5056440;28;20040;-59
2023/10/04 14:44:06;;;;;;;2.88;1.00;;;;;;;;;;5056904;28;20413;-59
2023/10/04 14:46:32;;;;;;;1.88;0.70;;;;;;;;;;5056368;28;20021;-59
2023/10/04 14:48:58;;;;;;;2.45;1.10;;;;;;;;;;5056370;28;20201;-59